Aérodrome :
LOGIN :

S'inscrire | Disclaimer

   EN    FR    IT 

 










Légende :    VFR   VFR Marginal   IFR   IFR Intensif   IFR Très Intensif
Visi : 
Plafond : 
>= 8 km
>= 3000ft
5 à 8 km
1000 à 3000 ft
1500m à 5 km
500 à 1000 ft
800 à 1500m
200 à 500 ft
< 800m
< 200 ft
Symboles :   Orages  Brouillard  Fortes neiges  Fortes précipitations  Vent > 20 kt
SIGMETs :   Divers  Orages  Givrage  Turbulence  Onde Orograph.  Cendres Volcan.






- Altitude de l'aérodrome : 1548 ft


LKNA - Náměšť Air Base

DERNIER METAR :
  • 291300Z 36008KT 290V040 CAVOK 28/18 Q1015 NOSIG RMK BLU BLU

METARs EXPIRÉS :
  • 291230Z 02006KT CAVOK 28/18 Q1015 NOSIG RMK BLU BLU
  • 291200Z 30007KT 260V340 CAVOK 27/18 Q1015 NOSIG RMK BLU BLU
  • 291130Z 29009KT 270V330 9999 FEW040TCU SCT050 BKN200 26/19 Q1016 NOSIG RMK BLU BLU
  • 291100Z 29010KT 9999 FEW040TCU SCT050 BKN200 25/18 Q1016 NOSIG
  • 291030Z 17005KT 120V230 9999 SCT040 SCT050 BKN150 26/18 Q1017 NOSIG RMK BLU BLU
  • 291000Z 15005KT 110V210 9999 FEW040 SCT050 BKN250 26/19 Q1017 NOSIG RMK BLU BLU

TAF TAF LKNA
Valide du 29 à 12h jusqu'au 30 à 12h UTC


291100Z 2912/3012 VRB02KT CAVOK
TEMPO 2912/3003 12010KT 8000 SHRA BKN025TCU
PROB30
TEMPO 2912/3001 13018G28KT 4000 TSRA BKN020CB
BECMG 2914/2916 10008KT
BECMG 3000/3002 VRB02KT



MET'MAP, la Météo Aéronautique d'un coup d'oeil ! - Copyright ORBIFLY Décembre 2007 - Disclaimer

ORBIFLY MET'MAP TEAM :

Programmation & Développement : Alexandra Zaïnal
Sur une idée originale de : Baudouin d'Aumeries
Soutien technique & logistique : Manuel Goepfert
Assistance : Marc-Olivier Méhu




SOURCES & CREDITS :

   NOAA